createdAt,value
2019-05-02T00:01:31.391Z,15.80
2019-05-02T00:04:01.715Z,15.00
2019-05-02T00:06:32.499Z,14.33
2019-05-02T00:09:04.053Z,12.43
2019-05-02T00:11:34.732Z,12.03
2019-05-02T00:14:05.284Z,9.97
2019-05-02T00:16:36.014Z,16.37
2019-05-02T00:19:09.271Z,11.27
2019-05-02T00:21:42.617Z,12.50
2019-05-02T00:24:11.474Z,12.33
2019-05-02T00:26:41.799Z,8.70
2019-05-02T00:29:11.916Z,11.90
2019-05-02T00:31:46.859Z,16.20
2019-05-02T00:34:13.998Z,10.00
2019-05-02T00:36:44.118Z,10.00
2019-05-02T00:39:15.193Z,14.93
2019-05-02T00:41:45.383Z,10.80
2019-05-02T00:44:16.316Z,13.73
2019-05-02T00:46:46.640Z,13.80
2019-05-02T00:49:16.760Z,14.60
2019-05-02T00:51:46.879Z,17.17
2019-05-02T00:54:19.308Z,17.77
2019-05-02T00:56:48.757Z,15.63
2019-05-02T00:59:19.086Z,17.40
2019-05-02T01:01:53.874Z,15.43
2019-05-02T01:04:31.608Z,14.60
2019-05-02T01:07:01.931Z,15.80
2019-05-02T01:09:32.982Z,17.63
2019-05-02T01:12:07.768Z,20.97
2019-05-02T01:14:34.642Z,15.00
2019-05-02T01:17:04.679Z,15.97
2019-05-02T01:19:34.984Z,21.07
2019-05-02T01:22:05.520Z,19.17
2019-05-02T01:24:39.935Z,16.47
2019-05-02T01:27:20.703Z,15.23
2019-05-02T01:29:55.533Z,18.83
2019-05-02T01:32:30.308Z,15.63
2019-05-02T01:35:06.217Z,20.33
2019-05-02T01:37:54.810Z,19.90
2019-05-02T01:40:25.910Z,18.33
2019-05-02T01:42:57.670Z,17.87
2019-05-02T01:45:27.785Z,20.67
2019-05-02T01:47:58.936Z,21.57
2019-05-02T01:50:33.411Z,26.47
2019-05-02T01:53:00.601Z,16.23
2019-05-02T01:55:32.768Z,22.93
2019-05-02T01:58:02.889Z,27.53
2019-05-02T02:00:33.217Z,21.27
2019-05-02T02:03:04.252Z,19.60
2019-05-02T02:05:35.293Z,25.30
2019-05-02T02:08:06.117Z,23.23
2019-05-02T02:10:36.351Z,24.00
2019-05-02T02:13:07.494Z,25.23
2019-05-02T02:15:37.820Z,30.33
2019-05-02T02:18:07.942Z,21.53
2019-05-02T02:20:55.054Z,18.70
2019-05-02T02:23:49.251Z,21.27
2019-05-02T02:26:21.100Z,21.77
2019-05-02T02:28:54.086Z,23.30
2019-05-02T02:31:24.411Z,16.47
2019-05-02T02:33:54.529Z,18.90
2019-05-02T02:36:31.821Z,20.03
2019-05-02T02:38:56.406Z,18.40
2019-05-02T02:41:26.528Z,15.00
2019-05-02T02:44:14.886Z,15.30
2019-05-02T02:46:52.365Z,12.03
2019-05-02T02:49:24.588Z,13.23
2019-05-02T02:51:58.222Z,17.23
2019-05-02T02:54:26.818Z,17.40
2019-05-02T02:56:56.936Z,13.00
2019-05-02T02:59:28.295Z,14.00
2019-05-02T03:02:08.727Z,14.17
2019-05-02T03:04:30.365Z,14.33
2019-05-02T03:07:00.487Z,12.40
2019-05-02T03:09:30.814Z,12.03
2019-05-02T03:12:18.951Z,10.87
2019-05-02T03:14:50.913Z,12.43
2019-05-02T03:17:26.410Z,11.47
2019-05-02T03:19:54.549Z,11.77
2019-05-02T03:22:24.764Z,10.47
2019-05-02T03:24:55.079Z,10.00
2019-05-02T03:27:29.971Z,10.70
2019-05-02T03:29:57.771Z,9.27
2019-05-02T03:32:34.458Z,9.77
2019-05-02T03:34:59.856Z,8.47
2019-05-02T03:37:30.008Z,9.43
2019-05-02T03:40:00.832Z,7.67
2019-05-02T03:42:43.716Z,12.57
2019-05-02T03:45:04.902Z,9.20
2019-05-02T03:47:37.060Z,9.80
2019-05-02T03:50:09.479Z,7.93
2019-05-02T03:52:43.763Z,8.63
2019-05-02T03:55:10.858Z,12.30
2019-05-02T03:57:42.184Z,12.23
2019-05-02T04:00:21.109Z,5.73
2019-05-02T04:02:45.912Z,8.70
2019-05-02T04:05:16.154Z,7.20
2019-05-02T04:07:47.412Z,8.30
2019-05-02T04:10:38.999Z,11.23
2019-05-02T04:13:10.145Z,6.40
2019-05-02T04:15:40.676Z,5.60
2019-05-02T04:18:15.193Z,9.90
2019-05-02T04:20:49.755Z,6.40
2019-05-02T04:23:21.076Z,12.53
2019-05-02T04:25:48.729Z,12.40
2019-05-02T04:28:19.869Z,11.53
2019-05-02T04:30:51.302Z,9.60
2019-05-02T04:33:21.962Z,8.90
2019-05-02T04:35:52.297Z,7.27
2019-05-02T04:38:31.466Z,7.77
2019-05-02T04:40:54.155Z,8.30
2019-05-02T04:43:24.280Z,6.80
2019-05-02T04:45:57.432Z,10.37
2019-05-02T04:48:28.423Z,6.20
2019-05-02T04:50:59.758Z,7.20
2019-05-02T04:53:36.779Z,6.50
2019-05-02T04:56:07.171Z,7.70
2019-05-02T04:58:36.816Z,7.47
2019-05-02T05:01:04.323Z,5.50
2019-05-02T05:03:34.442Z,7.97
2019-05-02T05:06:08.056Z,8.17
2019-05-02T05:08:38.891Z,8.40
2019-05-02T05:11:07.919Z,7.80
2019-05-02T05:13:38.196Z,47.37
2019-05-02T05:16:14.880Z,27.93
2019-05-02T05:18:43.984Z,31.10
2019-05-02T05:21:11.830Z,25.63
2019-05-02T05:23:59.652Z,25.70
2019-05-02T05:26:28.862Z,24.37
2019-05-02T05:28:58.983Z,21.20
2019-05-02T05:31:29.415Z,19.60
2019-05-02T05:33:59.832Z,17.57
2019-05-02T05:36:33.874Z,15.93
2019-05-02T05:39:03.055Z,15.13
2019-05-02T05:41:33.471Z,15.47
2019-05-02T05:44:03.593Z,12.43
2019-05-02T05:46:38.110Z,14.00
2019-05-02T05:49:05.462Z,16.00
2019-05-02T05:51:37.440Z,10.37
2019-05-02T05:54:07.785Z,9.63
2019-05-02T05:56:42.956Z,9.90
2019-05-02T05:59:10.042Z,12.50
2019-05-02T06:01:40.505Z,8.80
2019-05-02T06:04:13.830Z,8.17
2019-05-02T06:06:42.239Z,6.37
2019-05-02T06:09:13.954Z,7.27
2019-05-02T06:11:44.320Z,7.37
2019-05-02T06:14:14.661Z,8.53
2019-05-02T06:16:46.591Z,9.90
2019-05-02T06:19:17.809Z,10.20
2019-05-02T06:21:48.070Z,5.67
2019-05-02T06:24:18.190Z,6.57
2019-05-02T06:26:49.909Z,4.67
2019-05-02T06:29:20.909Z,4.67
2019-05-02T06:31:51.423Z,10.80
2019-05-02T06:34:21.536Z,4.23
2019-05-02T06:36:51.656Z,11.50
2019-05-02T06:39:21.772Z,4.03
2019-05-02T06:41:56.757Z,3.53
2019-05-02T06:44:25.216Z,4.00
2019-05-02T06:46:59.360Z,4.33
2019-05-02T06:49:26.758Z,4.90
2019-05-02T06:51:57.691Z,4.40
2019-05-02T06:54:28.041Z,3.93
2019-05-02T06:56:58.138Z,7.23
2019-05-02T06:59:28.463Z,4.27
2019-05-02T07:01:58.803Z,5.70
2019-05-02T07:04:29.110Z,7.00
2019-05-02T07:06:59.950Z,3.53
2019-05-02T07:09:40.400Z,2.10
2019-05-02T07:12:02.335Z,3.47
2019-05-02T07:14:32.865Z,2.90
2019-05-02T07:17:07.509Z,2.20
2019-05-02T07:19:42.113Z,2.97
2019-05-02T07:22:12.369Z,3.50
2019-05-02T07:24:42.557Z,2.43
2019-05-02T07:27:12.881Z,2.97
2019-05-02T07:29:43.001Z,3.07
2019-05-02T07:32:13.326Z,2.40
2019-05-02T07:34:44.207Z,2.00
2019-05-02T07:37:15.200Z,2.30
2019-05-02T07:39:45.321Z,4.80
2019-05-02T07:42:15.437Z,1.80
2019-05-02T07:44:45.567Z,3.77
2019-05-02T07:47:15.679Z,2.20
2019-05-02T07:49:45.803Z,3.47
2019-05-02T07:52:15.917Z,2.17
2019-05-02T07:54:46.241Z,2.63
2019-05-02T07:57:16.361Z,3.37
2019-05-02T07:59:49.511Z,3.30
2019-05-02T08:02:20.197Z,1.63
2019-05-02T08:04:49.992Z,1.50
2019-05-02T08:07:21.169Z,1.77
2019-05-02T08:09:51.872Z,3.53
2019-05-02T08:12:21.990Z,2.67
2019-05-02T08:14:52.113Z,1.90
2019-05-02T08:17:22.240Z,2.13
2019-05-02T08:19:52.349Z,1.60
2019-05-02T08:22:22.467Z,3.13
2019-05-02T08:24:52.798Z,2.50
2019-05-02T08:27:29.163Z,3.00
2019-05-02T08:30:00.087Z,2.20
2019-05-02T08:32:28.679Z,2.00
2019-05-02T08:34:58.798Z,2.10
2019-05-02T08:37:28.914Z,1.90
2019-05-02T08:39:59.246Z,3.93
2019-05-02T08:42:32.558Z,3.07
2019-05-02T08:45:03.112Z,4.33
2019-05-02T08:47:33.078Z,3.70
2019-05-02T08:50:03.609Z,3.60
2019-05-02T08:52:36.856Z,2.67
2019-05-02T08:55:09.755Z,1.93
2019-05-02T08:57:39.010Z,4.07
2019-05-02T09:00:11.459Z,2.50
2019-05-02T09:02:42.130Z,2.00
2019-05-02T09:05:12.880Z,3.63
2019-05-02T09:07:43.310Z,2.97
2019-05-02T09:10:14.198Z,6.30
2019-05-02T09:12:45.575Z,2.23
2019-05-02T09:15:16.465Z,4.03
2019-05-02T09:17:52.719Z,2.60
2019-05-02T09:20:20.736Z,2.30
2019-05-02T09:22:52.236Z,2.40
2019-05-02T09:25:22.030Z,8.47
2019-05-02T09:27:52.773Z,2.00
2019-05-02T09:30:25.818Z,3.13
2019-05-02T09:32:57.120Z,4.27
2019-05-02T09:35:26.849Z,2.93
2019-05-02T09:37:56.971Z,2.53
2019-05-02T09:40:27.086Z,2.23
2019-05-02T09:43:01.629Z,3.27
2019-05-02T09:45:33.358Z,4.73
2019-05-02T09:48:07.098Z,3.07
2019-05-02T09:50:34.448Z,6.17
2019-05-02T09:53:05.697Z,3.03
2019-05-02T09:55:35.790Z,4.20
2019-05-02T09:58:06.048Z,3.00
2019-05-02T10:00:37.873Z,5.00
2019-05-02T10:03:08.207Z,4.40
2019-05-02T10:05:38.325Z,3.87
2019-05-02T10:08:11.622Z,2.23
2019-05-02T10:10:44.262Z,2.60
2019-05-02T10:13:12.235Z,7.73
2019-05-02T10:15:42.899Z,3.03
2019-05-02T10:18:14.551Z,3.93
2019-05-02T10:20:44.971Z,2.90
2019-05-02T10:23:19.538Z,3.00
2019-05-02T10:25:47.086Z,4.57
2019-05-02T10:28:17.379Z,3.03
2019-05-02T10:30:51.710Z,2.10
2019-05-02T10:33:19.457Z,3.90
2019-05-02T10:35:52.469Z,2.63
2019-05-02T10:38:22.874Z,3.40
2019-05-02T10:40:54.549Z,2.80
2019-05-02T10:43:24.849Z,3.07
2019-05-02T10:45:56.631Z,3.60
2019-05-02T10:48:28.775Z,5.87
2019-05-02T10:51:16.301Z,7.00
2019-05-02T10:53:47.063Z,5.00
2019-05-02T10:56:18.178Z,4.67
2019-05-02T10:58:48.501Z,4.87
2019-05-02T11:01:21.840Z,5.03
2019-05-02T11:03:53.454Z,4.50
2019-05-02T11:06:23.774Z,4.27
2019-05-02T11:08:54.089Z,5.17
2019-05-02T11:11:25.156Z,6.30
2019-05-02T11:14:00.786Z,5.73
2019-05-02T11:16:35.925Z,4.67
2019-05-02T11:19:07.888Z,6.20
2019-05-02T11:21:38.009Z,4.87
2019-05-02T11:24:08.125Z,6.30
2019-05-02T11:26:38.244Z,3.63
2019-05-02T11:29:08.571Z,3.30
2019-05-02T11:31:38.688Z,3.60
2019-05-02T11:34:08.806Z,3.53
2019-05-02T11:36:39.130Z,2.53
2019-05-02T11:39:18.537Z,3.40
2019-05-02T11:41:42.243Z,3.90
2019-05-02T11:44:12.562Z,4.83
2019-05-02T11:46:46.751Z,3.10
2019-05-02T11:49:14.641Z,2.20
2019-05-02T11:51:47.078Z,3.07
2019-05-02T11:54:18.163Z,2.50
2019-05-02T11:56:49.197Z,3.40
2019-05-02T11:59:20.777Z,2.60
2019-05-02T12:01:59.355Z,3.90
2019-05-02T12:04:24.779Z,3.37
2019-05-02T12:07:01.008Z,3.63
2019-05-02T12:09:26.654Z,2.40
2019-05-02T12:11:56.811Z,5.30
2019-05-02T12:14:27.432Z,2.80
2019-05-02T12:16:58.651Z,3.50
2019-05-02T12:19:28.768Z,4.53
2019-05-02T12:21:59.093Z,4.60
2019-05-02T12:24:29.216Z,7.07
2019-05-02T12:26:59.332Z,3.53
2019-05-02T12:29:29.451Z,5.63
2019-05-02T12:31:59.776Z,4.10
2019-05-02T12:34:30.101Z,7.73
2019-05-02T12:37:01.738Z,3.70
2019-05-02T12:39:31.978Z,3.90
2019-05-02T12:42:05.564Z,7.53
2019-05-02T12:44:36.105Z,2.77
2019-05-02T12:47:06.428Z,2.87
2019-05-02T12:49:36.550Z,3.80
2019-05-02T12:52:06.680Z,3.70
2019-05-02T12:54:36.786Z,7.77
2019-05-02T12:57:07.110Z,4.07
2019-05-02T12:59:37.238Z,7.43
2019-05-02T13:02:12.079Z,5.13
2019-05-02T13:04:41.924Z,4.50
2019-05-02T13:07:12.751Z,7.10
2019-05-02T13:09:43.237Z,5.27
2019-05-02T13:12:22.303Z,5.53
2019-05-02T13:14:52.992Z,2.53
2019-05-02T13:17:23.444Z,6.27
2019-05-02T13:19:57.071Z,7.23
2019-05-02T13:22:45.580Z,7.03
2019-05-02T13:25:17.752Z,3.90
2019-05-02T13:27:48.281Z,3.97
2019-05-02T13:30:21.949Z,3.87
2019-05-02T13:32:57.731Z,7.17
2019-05-02T13:35:34.395Z,4.57
2019-05-02T13:38:05.459Z,3.70
2019-05-02T13:40:41.679Z,5.83
2019-05-02T13:43:12.574Z,7.50
2019-05-02T13:45:54.135Z,6.17
2019-05-02T13:48:24.453Z,8.47
2019-05-02T13:50:54.574Z,8.90
2019-05-02T13:53:24.697Z,11.60
2019-05-02T13:55:57.783Z,6.93
2019-05-02T13:58:32.668Z,7.63
2019-05-02T14:01:03.401Z,6.60
2019-05-02T14:03:33.361Z,6.33
2019-05-02T14:06:03.692Z,4.10
2019-05-02T14:08:37.003Z,4.10
2019-05-02T14:11:08.839Z,8.53
2019-05-02T14:13:39.181Z,5.97
2019-05-02T14:16:09.287Z,8.53
2019-05-02T14:18:39.404Z,6.90
2019-05-02T14:21:09.724Z,6.80
2019-05-02T14:23:41.908Z,6.80
2019-05-02T14:26:11.770Z,6.93
2019-05-02T14:28:43.328Z,8.10
2019-05-02T14:31:13.686Z,8.80
2019-05-02T14:33:45.442Z,10.47
2019-05-02T14:36:15.560Z,4.73
2019-05-02T14:38:45.680Z,8.13
2019-05-02T14:41:17.440Z,4.40
2019-05-02T14:43:55.547Z,5.23
2019-05-02T14:46:34.317Z,6.90
2019-05-02T14:48:58.038Z,5.53
2019-05-02T14:51:28.384Z,19.70
2019-05-02T14:54:06.123Z,9.50
2019-05-02T14:56:37.486Z,10.70
2019-05-02T14:59:09.350Z,5.03
2019-05-02T15:01:38.497Z,9.47
2019-05-02T15:04:08.583Z,11.90
2019-05-02T15:06:42.811Z,7.67
2019-05-02T15:09:12.061Z,10.63
2019-05-02T15:12:03.138Z,9.10
2019-05-02T15:14:35.076Z,5.57
2019-05-02T15:17:07.066Z,5.50
2019-05-02T15:19:37.170Z,6.60
2019-05-02T15:22:07.680Z,12.00
2019-05-02T15:24:38.053Z,9.07
2019-05-02T15:27:17.301Z,13.13
2019-05-02T15:29:42.060Z,9.00
2019-05-02T15:32:17.164Z,8.70
2019-05-02T15:35:04.078Z,6.80
2019-05-02T15:37:35.802Z,7.57
2019-05-02T15:42:42.633Z,3.70
2019-05-02T15:45:12.971Z,7.13
2019-05-02T15:47:45.431Z,5.97
2019-05-02T15:50:23.807Z,6.80
2019-05-02T15:52:49.352Z,10.87
2019-05-02T15:55:19.890Z,4.50
2019-05-02T15:57:50.207Z,7.70
2019-05-02T16:00:28.311Z,8.70
2019-05-02T16:03:01.449Z,6.60
2019-05-02T16:05:31.906Z,6.40
2019-05-02T16:08:07.847Z,13.90
2019-05-02T16:10:38.377Z,7.87
2019-05-02T16:13:08.754Z,4.50
2019-05-02T16:15:40.087Z,9.90
2019-05-02T16:18:10.409Z,8.53
2019-05-02T16:21:04.157Z,6.30
2019-05-02T16:23:29.510Z,4.67
2019-05-02T16:25:56.844Z,3.87
2019-05-02T16:28:25.632Z,10.33
2019-05-02T16:30:57.390Z,4.30
2019-05-02T16:33:27.511Z,6.67
2019-05-02T16:35:57.630Z,7.47
2019-05-02T16:38:33.636Z,5.43
2019-05-02T16:41:04.002Z,4.87
2019-05-02T16:43:32.844Z,10.13
2019-05-02T16:46:06.714Z,7.60
2019-05-02T16:48:37.682Z,6.37
2019-05-02T16:51:28.096Z,4.93
2019-05-02T16:53:38.499Z,10.60
2019-05-02T16:56:08.618Z,10.83
2019-05-02T16:58:43.390Z,6.53
2019-05-02T17:01:12.299Z,6.30
2019-05-02T17:03:42.413Z,11.63
2019-05-02T17:06:12.494Z,9.43
2019-05-02T17:09:02.476Z,6.57
2019-05-02T17:11:35.840Z,9.93
2019-05-02T17:14:07.004Z,10.87
2019-05-02T17:16:38.042Z,7.07
2019-05-02T17:19:08.161Z,7.23
2019-05-02T17:21:52.411Z,5.43
2019-05-02T17:24:10.447Z,4.73
2019-05-02T17:26:42.249Z,5.17
2019-05-02T17:29:16.515Z,3.83
2019-05-02T17:31:44.285Z,12.93
2019-05-02T17:34:14.938Z,11.27
2019-05-02T17:36:45.843Z,5.83
2019-05-02T17:39:18.655Z,8.93
2019-05-02T17:41:48.040Z,8.10
2019-05-02T17:44:22.115Z,9.63
2019-05-02T17:46:57.899Z,7.00
2019-05-02T17:49:23.854Z,8.80
2019-05-02T17:52:19.731Z,5.37
2019-05-02T17:54:43.213Z,4.67
2019-05-02T17:57:13.331Z,5.10
2019-05-02T17:59:43.657Z,7.13
2019-05-02T18:02:15.862Z,9.40
2019-05-02T18:04:46.690Z,7.83
2019-05-02T18:07:18.170Z,6.53
2019-05-02T18:09:48.639Z,6.23
2019-05-02T18:12:18.757Z,7.97
2019-05-02T18:14:53.114Z,4.13
2019-05-02T18:17:22.019Z,4.97
2019-05-02T18:19:56.569Z,4.40
2019-05-02T18:22:26.416Z,8.03
2019-05-02T18:24:55.905Z,5.33
2019-05-02T18:27:26.229Z,5.83
2019-05-02T18:29:56.351Z,4.87
2019-05-02T18:32:26.674Z,7.00
2019-05-02T18:35:01.211Z,8.13
2019-05-02T18:37:28.549Z,8.10
2019-05-02T18:39:58.670Z,9.93
2019-05-02T18:42:28.992Z,10.00
2019-05-02T18:45:01.649Z,5.20
2019-05-02T18:47:33.488Z,6.93
2019-05-02T18:50:06.116Z,4.53
2019-05-02T18:52:38.112Z,7.80
2019-05-02T18:55:07.372Z,4.67
2019-05-02T18:57:37.489Z,5.83
2019-05-02T19:00:08.551Z,4.80
2019-05-02T19:02:39.162Z,7.40
2019-05-02T19:05:13.507Z,6.80
2019-05-02T19:07:42.857Z,6.37
2019-05-02T19:10:13.004Z,8.10
2019-05-02T19:12:43.137Z,5.40
2019-05-02T19:15:13.856Z,10.07
2019-05-02T19:17:44.178Z,7.60
2019-05-02T19:20:32.547Z,9.00
2019-05-02T19:23:03.464Z,6.33
2019-05-02T19:25:33.584Z,6.43
2019-05-02T19:28:05.465Z,2.93
2019-05-02T19:30:37.302Z,5.80
2019-05-02T19:33:07.993Z,9.10
2019-05-02T19:35:45.307Z,9.60
2019-05-02T19:38:11.700Z,6.73
2019-05-02T19:40:42.754Z,11.33
2019-05-02T19:43:14.776Z,8.73
2019-05-02T19:45:45.738Z,7.70
2019-05-02T19:48:16.534Z,4.47
2019-05-02T19:50:46.857Z,8.47
2019-05-02T19:53:18.338Z,12.47
2019-05-02T19:55:48.942Z,5.60
2019-05-02T19:58:19.060Z,9.30
2019-05-02T20:00:49.388Z,5.73
2019-05-02T20:03:22.202Z,6.63
2019-05-02T20:05:56.563Z,10.10
2019-05-02T20:08:24.659Z,4.33
2019-05-02T20:10:58.348Z,8.20
2019-05-02T20:13:28.520Z,8.30
2019-05-02T20:16:17.968Z,10.63
2019-05-02T20:18:48.299Z,10.03
2019-05-02T20:21:32.650Z,9.10
2019-05-02T20:24:04.247Z,9.63
2019-05-02T20:26:34.718Z,12.13
2019-05-02T20:29:05.088Z,8.30
2019-05-02T20:31:35.562Z,5.07
2019-05-02T20:34:06.091Z,7.87
2019-05-02T20:36:38.666Z,6.90
2019-05-02T20:39:14.047Z,5.17
2019-05-02T20:41:44.642Z,12.83
2019-05-02T20:44:14.969Z,9.40
2019-05-02T20:46:45.493Z,8.13
2019-05-02T20:49:15.816Z,12.33
2019-05-02T20:51:45.944Z,8.73
2019-05-02T20:54:16.057Z,4.27
2019-05-02T20:56:46.093Z,7.13
2019-05-02T20:59:16.252Z,8.07
2019-05-02T21:01:47.811Z,6.23
2019-05-02T21:04:17.968Z,5.17
2019-05-02T21:07:07.748Z,14.43
2019-05-02T21:09:48.310Z,9.93
2019-05-02T21:12:18.432Z,5.80
2019-05-02T21:14:48.550Z,13.47
2019-05-02T21:17:18.669Z,8.40
2019-05-02T21:19:48.786Z,7.70
2019-05-02T21:22:22.201Z,15.50
2019-05-02T21:24:52.921Z,7.43
2019-05-02T21:27:23.091Z,4.87
2019-05-02T21:29:53.362Z,11.90
2019-05-02T21:32:23.683Z,11.50
2019-05-02T21:34:54.212Z,9.63
2019-05-02T21:37:25.296Z,7.80
2019-05-02T21:39:55.475Z,7.87
2019-05-02T21:42:25.799Z,7.80
2019-05-02T21:44:55.921Z,8.43
2019-05-02T21:47:26.041Z,9.50
2019-05-02T21:49:58.207Z,7.40
2019-05-02T21:52:44.913Z,13.10
2019-05-02T21:55:22.405Z,13.93
2019-05-02T21:57:52.522Z,5.10
2019-05-02T22:00:43.535Z,5.20
2019-05-02T22:03:14.267Z,8.27
2019-05-02T22:05:44.797Z,8.70
2019-05-02T22:08:14.914Z,12.20
2019-05-02T22:10:45.035Z,10.93
2019-05-02T22:13:15.153Z,16.40
2019-05-02T22:15:45.270Z,10.53
2019-05-02T22:18:15.390Z,10.10
2019-05-02T22:20:45.515Z,15.17
2019-05-02T22:23:15.645Z,9.80
2019-05-02T22:25:45.753Z,6.20
2019-05-02T22:28:15.870Z,7.53
2019-05-02T22:30:45.987Z,14.37
2019-05-02T22:33:16.107Z,8.40
2019-05-02T22:35:46.225Z,7.90
2019-05-02T22:38:22.210Z,7.63
2019-05-02T22:40:53.851Z,10.53
2019-05-02T22:43:24.160Z,7.03
2019-05-02T22:45:54.290Z,6.87
2019-05-02T22:48:24.606Z,11.33
2019-05-02T22:50:54.722Z,5.27
2019-05-02T22:53:24.845Z,8.87
2019-05-02T22:55:54.961Z,8.97
2019-05-02T22:58:25.079Z,8.57
2019-05-02T23:00:55.406Z,7.93
2019-05-02T23:03:25.521Z,7.53
2019-05-02T23:05:55.852Z,9.10
2019-05-02T23:08:25.970Z,8.67
2019-05-02T23:10:56.086Z,11.97
2019-05-02T23:13:26.410Z,18.33
2019-05-02T23:15:56.742Z,7.37
2019-05-02T23:18:27.056Z,7.17
2019-05-02T23:20:57.176Z,7.10
2019-05-02T23:23:27.297Z,11.20
2019-05-02T23:25:59.053Z,9.53
2019-05-02T23:28:33.475Z,6.23
2019-05-02T23:31:03.593Z,10.07
2019-05-02T23:33:51.701Z,9.07
2019-05-02T23:36:22.072Z,11.20
2019-05-02T23:38:52.270Z,7.93
2019-05-02T23:41:22.500Z,11.27
2019-05-02T23:43:52.826Z,7.47
2019-05-02T23:46:23.283Z,8.07
2019-05-02T23:48:53.685Z,16.33
2019-05-02T23:51:23.798Z,20.17
2019-05-02T23:53:53.926Z,16.77
2019-05-02T23:56:24.036Z,6.67
2019-05-02T23:58:54.155Z,15.30
